Tropical Cyclones
[Index]
Main Index Home Page Stock Weather Photos Extreme Storms Discussion Storm News and Storm Chasing Reports Tropical Cyclones / Hurricanes / Typhoons Weather Data and Links Wild Fires / Bushfires Weather Observation Techniques Weather Picture Catalogue Tornado Pictures and Reports Stock Video Footage and DVDs for sale
Season 2010-2011 Tropical Cyclone YASI Track Map
Season 2010-2011 Summaries: [BoM-AU] [JTWC-AU] [JTWC-SIO] [JTWC-SPAC] [JTWC-SH]
<<- Previous TC | JTWC 2010-2011 Season | Next TC ->>

click for intensity scale information  Lat/long Grid: Show Hide

 Date Labels: Show Hide

Joint Typhoon Warning Centre Cyclone Data

Name: YASI

29 Jan 2011 00:00 UTC to 06 Feb 2011 18:00 UTC

    date/time    lat    long     hPa   cat  kts
2011-01-29 00   14.4   173.6    1007         20          
2011-01-29 06   14.1   172.9    1004         25          
2011-01-29 12   13.9   172.0    1000         30          
2011-01-29 18   13.5   171.2    1000         30          
2011-01-30 00   13.3   170.1     993    1    40          
2011-01-30 06   13.2   168.8     989    1    45          
2011-01-30 12   13.4   167.5     985    1    50          
2011-01-30 18   13.5   166.1     978    2    60          
2011-01-30 18   13.5   166.1     978    2    60          
2011-01-31 00   13.6   164.5     974    2    65          
2011-01-31 00   13.6   164.5     974    2    65          
2011-01-31 06   13.5   162.5     967    3    75          
2011-01-31 06   13.5   162.5     967    3    75          
2011-01-31 06   13.5   162.5     967    3    75          
2011-01-31 12   13.5   160.5     956    3    90          
2011-01-31 12   13.5   160.5     956    3    90          
2011-01-31 12   13.5   160.5     956    3    90          
2011-01-31 18   13.7   158.5     956    3    90          
2011-01-31 18   13.7   158.5     956    3    90          
2011-01-31 18   13.7   158.5     956    3    90          
2011-02-01 00   14.1   156.6     952    3    95          
2011-02-01 00   14.1   156.6     952    3    95          
2011-02-01 00   14.1   156.6     952    3    95          
2011-02-01 06   14.4   154.9     948    4   100          
2011-02-01 06   14.4   154.9     948    4   100          
2011-02-01 06   14.4   154.9     948    4   100          
2011-02-01 12   15.0   153.3     933    4   120          
2011-02-01 12   15.0   153.3     933    4   120          
2011-02-01 12   15.0   153.3     933    4   120          
2011-02-01 18   15.8   151.6     929    5   125          
2011-02-01 18   15.8   151.6     929    5   125          
2011-02-01 18   15.8   151.6     929    5   125          
2011-02-02 00   16.4   149.8     926    5   130          
2011-02-02 00   16.4   149.8     926    5   130          
2011-02-02 00   16.4   149.8     926    5   130          
2011-02-02 06   17.0   148.1     922    5   135          
2011-02-02 06   17.0   148.1     922    5   135          
2011-02-02 06   17.0   148.1     922    5   135          
2011-02-02 12   17.5   146.9     922    5   135          
2011-02-02 12   17.5   146.9     922    5   135          
2011-02-02 12   17.5   146.9     922    5   135          
2011-02-02 18   18.2   145.2     941    4   110          
2011-02-02 18   18.2   145.2     941    4   110          
2011-02-02 18   18.2   145.2     941    4   110          
2011-02-03 00   19.4   143.2     963    3    80          
2011-02-03 00   19.4   143.2     963    3    80          
2011-02-03 00   19.4   143.2     963    3    80          
2011-02-03 06   19.9   141.6     985    1    50          
2011-02-03 06   19.9   141.6     985    1    50          
2011-02-03 12   20.4   140.4     993    1    40          
2011-02-03 18   21.0   139.4    1000         30          
2011-02-04 00   21.6   138.5    1000         30          
2011-02-04 06   22.4   137.8    1004         25          
2011-02-04 12   23.2   137.0    1004         25          
2011-02-04 18   24.2   136.4    1004         25          
2011-02-05 00   24.9   135.4    1004         25          
2011-02-05 06   25.3   135.1    1004         25          
2011-02-05 12   25.3   134.5    1004         25          
2011-02-05 18   25.1   133.8    1004         25          
2011-02-06 00   25.0   132.8    1004         25          
2011-02-06 06   24.8   131.6    1004         25          
2011-02-06 12   24.7   130.9    1004         25          
2011-02-06 18   24.7   129.8    1004         25          
Winds are 1-min average.

Tropical cyclone tracks developed by Michael Bath using data from the Joint Typhoon Warning Centre Best Tracks and Google Maps.


[Australian Severe Weather index] [Copyright Notice] [Email Contacts] [Search This Site] [Privacy Policy]
Document: tropical_cyclone_yasi.htm Updated: 28 June 2017